sensor_id;sensor_type;location;lat;lon;timestamp;P1;durP1;ratioP1;P2;durP2;ratioP2
43905;SDS011;29564;46.622;13.818;2022-07-18T00:00:57;3.58;;;2.70;;
43905;SDS011;29564;46.622;13.818;2022-07-18T00:01:59;3.45;;;2.58;;
43905;SDS011;29564;46.622;13.818;2022-07-18T00:03:00;3.25;;;2.72;;
43905;SDS011;29564;46.622;13.818;2022-07-18T00:04:01;3.33;;;2.90;;
43905;SDS011;29564;46.622;13.818;2022-07-18T00:05:03;3.58;;;2.55;;
43905;SDS011;29564;46.622;13.818;2022-07-18T00:06:05;3.75;;;2.70;;
43905;SDS011;29564;46.622;13.818;2022-07-18T00:07:06;3.38;;;2.42;;
43905;SDS011;29564;46.622;13.818;2022-07-18T00:08:07;3.42;;;2.53;;
43905;SDS011;29564;46.622;13.818;2022-07-18T00:09:08;3.95;;;2.90;;
43905;SDS011;29564;46.622;13.818;2022-07-18T00:10:10;4.80;;;2.75;;
43905;SDS011;29564;46.622;13.818;2022-07-18T00:11:11;3.88;;;2.92;;
43905;SDS011;29564;46.622;13.818;2022-07-18T00:12:12;3.63;;;2.60;;
43905;SDS011;29564;46.622;13.818;2022-07-18T00:13:13;3.42;;;2.20;;
43905;SDS011;29564;46.622;13.818;2022-07-18T00:14:14;3.22;;;2.50;;
43905;SDS011;29564;46.622;13.818;2022-07-18T00:15:16;3.88;;;2.67;;
43905;SDS011;29564;46.622;13.818;2022-07-18T00:16:17;4.80;;;2.42;;
43905;SDS011;29564;46.622;13.818;2022-07-18T00:17:19;4.00;;;2.70;;
43905;SDS011;29564;46.622;13.818;2022-07-18T00:18:20;3.90;;;2.55;;
43905;SDS011;29564;46.622;13.818;2022-07-18T00:19:21;5.13;;;2.60;;
43905;SDS011;29564;46.622;13.818;2022-07-18T00:20:23;3.03;;;2.42;;
43905;SDS011;29564;46.622;13.818;2022-07-18T00:21:24;4.15;;;2.20;;
43905;SDS011;29564;46.622;13.818;2022-07-18T00:22:26;5.05;;;2.65;;
43905;SDS011;29564;46.622;13.818;2022-07-18T00:23:27;3.25;;;2.45;;
43905;SDS011;29564;46.622;13.818;2022-07-18T00:24:28;4.50;;;2.80;;
43905;SDS011;29564;46.622;13.818;2022-07-18T00:25:29;4.38;;;2.38;;
43905;SDS011;29564;46.622;13.818;2022-07-18T00:26:31;3.35;;;2.60;;
43905;SDS011;29564;46.622;13.818;2022-07-18T00:27:32;4.90;;;2.80;;
43905;SDS011;29564;46.622;13.818;2022-07-18T00:28:33;3.40;;;2.45;;
43905;SDS011;29564;46.622;13.818;2022-07-18T00:29:34;2.55;;;2.30;;
43905;SDS011;29564;46.622;13.818;2022-07-18T00:30:40;4.38;;;2.47;;
43905;SDS011;29564;46.622;13.818;2022-07-18T00:31:41;3.08;;;2.70;;
43905;SDS011;29564;46.622;13.818;2022-07-18T00:32:42;4.35;;;2.20;;
43905;SDS011;29564;46.622;13.818;2022-07-18T00:33:43;5.60;;;2.97;;
43905;SDS011;29564;46.622;13.818;2022-07-18T00:34:45;4.95;;;2.70;;
43905;SDS011;29564;46.622;13.818;2022-07-18T00:35:46;3.95;;;2.80;;
43905;SDS011;29564;46.622;13.818;2022-07-18T00:36:47;3.95;;;2.60;;
43905;SDS011;29564;46.622;13.818;2022-07-18T00:37:48;7.30;;;2.80;;
43905;SDS011;29564;46.622;13.818;2022-07-18T00:38:49;5.50;;;2.90;;
43905;SDS011;29564;46.622;13.818;2022-07-18T00:39:50;4.25;;;2.60;;
43905;SDS011;29564;46.622;13.818;2022-07-18T00:40:52;4.78;;;2.38;;
43905;SDS011;29564;46.622;13.818;2022-07-18T00:41:53;2.88;;;2.45;;
43905;SDS011;29564;46.622;13.818;2022-07-18T00:42:54;4.57;;;2.95;;
43905;SDS011;29564;46.622;13.818;2022-07-18T00:43:55;5.32;;;2.63;;
43905;SDS011;29564;46.622;13.818;2022-07-18T00:44:57;5.95;;;2.50;;
43905;SDS011;29564;46.622;13.818;2022-07-18T00:45:59;2.85;;;2.33;;
43905;SDS011;29564;46.622;13.818;2022-07-18T00:47:00;3.88;;;2.50;;
43905;SDS011;29564;46.622;13.818;2022-07-18T00:48:08;5.05;;;2.78;;
43905;SDS011;29564;46.622;13.818;2022-07-18T00:49:09;3.35;;;2.75;;
43905;SDS011;29564;46.622;13.818;2022-07-18T00:50:10;2.95;;;2.63;;
43905;SDS011;29564;46.622;13.818;2022-07-18T00:51:12;5.47;;;2.85;;
43905;SDS011;29564;46.622;13.818;2022-07-18T00:52:13;4.65;;;2.95;;
43905;SDS011;29564;46.622;13.818;2022-07-18T00:53:15;4.32;;;2.30;;
43905;SDS011;29564;46.622;13.818;2022-07-18T00:54:16;4.90;;;2.80;;
43905;SDS011;29564;46.622;13.818;2022-07-18T00:55:18;3.45;;;2.45;;
43905;SDS011;29564;46.622;13.818;2022-07-18T00:56:20;3.60;;;2.53;;
43905;SDS011;29564;46.622;13.818;2022-07-18T00:57:22;3.38;;;2.60;;
43905;SDS011;29564;46.622;13.818;2022-07-18T00:58:23;3.08;;;2.47;;
43905;SDS011;29564;46.622;13.818;2022-07-18T00:59:24;3.22;;;2.30;;
43905;SDS011;29564;46.622;13.818;2022-07-18T01:00:45;3.30;;;2.53;;
43905;SDS011;29564;46.622;13.818;2022-07-18T01:02:05;3.33;;;2.60;;
43905;SDS011;29564;46.622;13.818;2022-07-18T01:03:06;5.35;;;2.47;;
43905;SDS011;29564;46.622;13.818;2022-07-18T01:04:07;3.13;;;2.25;;
43905;SDS011;29564;46.622;13.818;2022-07-18T01:05:12;3.50;;;2.22;;
43905;SDS011;29564;46.622;13.818;2022-07-18T01:06:14;2.95;;;2.45;;
43905;SDS011;29564;46.622;13.818;2022-07-18T01:07:15;3.08;;;2.15;;
43905;SDS011;29564;46.622;13.818;2022-07-18T01:08:16;3.45;;;2.40;;
43905;SDS011;29564;46.622;13.818;2022-07-18T01:09:18;3.00;;;2.67;;
43905;SDS011;29564;46.622;13.818;2022-07-18T01:10:19;5.22;;;2.40;;
43905;SDS011;29564;46.622;13.818;2022-07-18T01:11:20;5.97;;;2.30;;
43905;SDS011;29564;46.622;13.818;2022-07-18T01:12:22;4.00;;;2.58;;
43905;SDS011;29564;46.622;13.818;2022-07-18T01:13:23;2.70;;;2.08;;
43905;SDS011;29564;46.622;13.818;2022-07-18T01:14:24;3.70;;;2.60;;
43905;SDS011;29564;46.622;13.818;2022-07-18T01:15:26;3.42;;;2.28;;
43905;SDS011;29564;46.622;13.818;2022-07-18T01:16:27;3.13;;;2.33;;
43905;SDS011;29564;46.622;13.818;2022-07-18T01:17:29;3.00;;;1.98;;
43905;SDS011;29564;46.622;13.818;2022-07-18T01:18:30;3.70;;;2.50;;
43905;SDS011;29564;46.622;13.818;2022-07-18T01:19:31;4.32;;;2.40;;
43905;SDS011;29564;46.622;13.818;2022-07-18T01:20:32;3.70;;;2.80;;
43905;SDS011;29564;46.622;13.818;2022-07-18T01:21:34;3.67;;;2.70;;
43905;SDS011;29564;46.622;13.818;2022-07-18T01:22:37;3.15;;;2.35;;
43905;SDS011;29564;46.622;13.818;2022-07-18T01:23:41;3.78;;;2.42;;
43905;SDS011;29564;46.622;13.818;2022-07-18T01:24:42;4.68;;;2.95;;
43905;SDS011;29564;46.622;13.818;2022-07-18T01:25:44;4.35;;;2.60;;
43905;SDS011;29564;46.622;13.818;2022-07-18T01:26:45;4.55;;;2.45;;
43905;SDS011;29564;46.622;13.818;2022-07-18T01:27:46;2.95;;;2.47;;
43905;SDS011;29564;46.622;13.818;2022-07-18T01:28:47;3.10;;;2.40;;
43905;SDS011;29564;46.622;13.818;2022-07-18T01:29:49;3.13;;;2.50;;
43905;SDS011;29564;46.622;13.818;2022-07-18T01:30:51;7.97;;;2.67;;
43905;SDS011;29564;46.622;13.818;2022-07-18T01:31:52;3.13;;;2.45;;
43905;SDS011;29564;46.622;13.818;2022-07-18T01:32:57;3.15;;;2.30;;
43905;SDS011;29564;46.622;13.818;2022-07-18T01:34:01;3.63;;;2.65;;
43905;SDS011;29564;46.622;13.818;2022-07-18T01:35:03;2.70;;;2.25;;
43905;SDS011;29564;46.622;13.818;2022-07-18T01:36:05;2.88;;;1.85;;
43905;SDS011;29564;46.622;13.818;2022-07-18T01:37:07;3.63;;;2.65;;
43905;SDS011;29564;46.622;13.818;2022-07-18T01:38:09;3.35;;;2.20;;
43905;SDS011;29564;46.622;13.818;2022-07-18T01:39:10;3.90;;;2.13;;
43905;SDS011;29564;46.622;13.818;2022-07-18T01:40:12;4.22;;;2.53;;
43905;SDS011;29564;46.622;13.818;2022-07-18T01:41:13;4.82;;;2.65;;
43905;SDS011;29564;46.622;13.818;2022-07-18T01:42:14;4.97;;;2.83;;
43905;SDS011;29564;46.622;13.818;2022-07-18T01:43:16;3.05;;;2.28;;
43905;SDS011;29564;46.622;13.818;2022-07-18T01:44:17;7.50;;;2.85;;
43905;SDS011;29564;46.622;13.818;2022-07-18T01:45:18;4.55;;;2.40;;
43905;SDS011;29564;46.622;13.818;2022-07-18T01:46:21;3.70;;;2.65;;
43905;SDS011;29564;46.622;13.818;2022-07-18T01:47:22;3.25;;;2.67;;
43905;SDS011;29564;46.622;13.818;2022-07-18T01:48:23;2.72;;;2.35;;
43905;SDS011;29564;46.622;13.818;2022-07-18T01:49:25;3.75;;;2.75;;
43905;SDS011;29564;46.622;13.818;2022-07-18T01:50:27;4.57;;;2.40;;
43905;SDS011;29564;46.622;13.818;2022-07-18T01:51:28;4.90;;;2.97;;
43905;SDS011;29564;46.622;13.818;2022-07-18T01:52:29;5.70;;;2.40;;
43905;SDS011;29564;46.622;13.818;2022-07-18T01:53:30;3.45;;;2.65;;
43905;SDS011;29564;46.622;13.818;2022-07-18T01:54:32;3.58;;;2.38;;
43905;SDS011;29564;46.622;13.818;2022-07-18T01:55:34;3.80;;;2.47;;
43905;SDS011;29564;46.622;13.818;2022-07-18T01:56:35;3.47;;;2.55;;
43905;SDS011;29564;46.622;13.818;2022-07-18T01:57:36;3.83;;;2.28;;
43905;SDS011;29564;46.622;13.818;2022-07-18T01:58:38;4.43;;;2.08;;
43905;SDS011;29564;46.622;13.818;2022-07-18T01:59:39;3.60;;;2.70;;
43905;SDS011;29564;46.622;13.818;2022-07-18T02:00:40;3.33;;;2.30;;
43905;SDS011;29564;46.622;13.818;2022-07-18T02:01:42;3.20;;;2.40;;
43905;SDS011;29564;46.622;13.818;2022-07-18T02:02:43;4.35;;;1.90;;
43905;SDS011;29564;46.622;13.818;2022-07-18T02:03:44;4.18;;;2.63;;
43905;SDS011;29564;46.622;13.818;2022-07-18T02:04:45;3.67;;;2.67;;
43905;SDS011;29564;46.622;13.818;2022-07-18T02:06:02;4.80;;;2.58;;
43905;SDS011;29564;46.622;13.818;2022-07-18T02:07:04;4.00;;;2.55;;
43905;SDS011;29564;46.622;13.818;2022-07-18T02:08:05;4.15;;;3.00;;
43905;SDS011;29564;46.622;13.818;2022-07-18T02:09:06;4.95;;;2.60;;
43905;SDS011;29564;46.622;13.818;2022-07-18T02:10:13;3.35;;;2.55;;
43905;SDS011;29564;46.622;13.818;2022-07-18T02:11:19;3.53;;;2.78;;
43905;SDS011;29564;46.622;13.818;2022-07-18T02:12:20;3.05;;;2.65;;
43905;SDS011;29564;46.622;13.818;2022-07-18T02:13:23;3.10;;;2.33;;
43905;SDS011;29564;46.622;13.818;2022-07-18T02:14:24;4.38;;;2.53;;
43905;SDS011;29564;46.622;13.818;2022-07-18T02:15:25;3.53;;;2.60;;
43905;SDS011;29564;46.622;13.818;2022-07-18T02:16:27;4.45;;;2.67;;
43905;SDS011;29564;46.622;13.818;2022-07-18T02:17:29;3.63;;;2.45;;
43905;SDS011;29564;46.622;13.818;2022-07-18T02:18:31;3.03;;;2.53;;
43905;SDS011;29564;46.622;13.818;2022-07-18T02:19:33;3.95;;;2.50;;
43905;SDS011;29564;46.622;13.818;2022-07-18T02:20:34;5.15;;;2.53;;
43905;SDS011;29564;46.622;13.818;2022-07-18T02:21:35;9.38;;;2.78;;
43905;SDS011;29564;46.622;13.818;2022-07-18T02:22:37;2.97;;;2.25;;
43905;SDS011;29564;46.622;13.818;2022-07-18T02:23:38;3.30;;;2.08;;
43905;SDS011;29564;46.622;13.818;2022-07-18T02:24:39;3.15;;;2.60;;
43905;SDS011;29564;46.622;13.818;2022-07-18T02:25:41;3.67;;;2.22;;
43905;SDS011;29564;46.622;13.818;2022-07-18T02:26:42;5.68;;;2.58;;
43905;SDS011;29564;46.622;13.818;2022-07-18T02:27:43;3.13;;;2.30;;
43905;SDS011;29564;46.622;13.818;2022-07-18T02:28:44;5.25;;;2.63;;
43905;SDS011;29564;46.622;13.818;2022-07-18T02:29:45;4.53;;;3.00;;
43905;SDS011;29564;46.622;13.818;2022-07-18T02:30:47;3.08;;;2.35;;
43905;SDS011;29564;46.622;13.818;2022-07-18T02:31:49;4.13;;;2.70;;
43905;SDS011;29564;46.622;13.818;2022-07-18T02:32:50;3.00;;;2.47;;
43905;SDS011;29564;46.622;13.818;2022-07-18T02:33:51;4.97;;;2.80;;
43905;SDS011;29564;46.622;13.818;2022-07-18T02:34:52;2.75;;;2.20;;
43905;SDS011;29564;46.622;13.818;2022-07-18T02:35:54;3.65;;;2.92;;
43905;SDS011;29564;46.622;13.818;2022-07-18T02:36:55;5.13;;;2.50;;
43905;SDS011;29564;46.622;13.818;2022-07-18T02:37:56;4.80;;;2.60;;
43905;SDS011;29564;46.622;13.818;2022-07-18T02:38:57;2.88;;;2.15;;
43905;SDS011;29564;46.622;13.818;2022-07-18T02:39:59;3.35;;;2.45;;
43905;SDS011;29564;46.622;13.818;2022-07-18T02:41:00;2.67;;;2.20;;
43905;SDS011;29564;46.622;13.818;2022-07-18T02:42:01;3.13;;;2.00;;
43905;SDS011;29564;46.622;13.818;2022-07-18T02:43:03;5.13;;;2.65;;
43905;SDS011;29564;46.622;13.818;2022-07-18T02:44:04;4.32;;;2.80;;
43905;SDS011;29564;46.622;13.818;2022-07-18T02:45:05;4.00;;;2.47;;
43905;SDS011;29564;46.622;13.818;2022-07-18T02:46:07;4.18;;;2.47;;
43905;SDS011;29564;46.622;13.818;2022-07-18T02:47:09;2.88;;;2.55;;
43905;SDS011;29564;46.622;13.818;2022-07-18T02:48:10;2.58;;;2.30;;
43905;SDS011;29564;46.622;13.818;2022-07-18T02:49:11;5.32;;;2.08;;
43905;SDS011;29564;46.622;13.818;2022-07-18T02:50:27;3.47;;;2.55;;
43905;SDS011;29564;46.622;13.818;2022-07-18T02:51:28;4.22;;;2.22;;
43905;SDS011;29564;46.622;13.818;2022-07-18T02:52:29;3.42;;;2.45;;
43905;SDS011;29564;46.622;13.818;2022-07-18T02:53:30;3.33;;;2.40;;
43905;SDS011;29564;46.622;13.818;2022-07-18T02:54:32;2.95;;;2.55;;
43905;SDS011;29564;46.622;13.818;2022-07-18T02:55:35;4.50;;;2.70;;
43905;SDS011;29564;46.622;13.818;2022-07-18T02:56:36;4.55;;;2.50;;
43905;SDS011;29564;46.622;13.818;2022-07-18T02:57:37;3.47;;;2.28;;
43905;SDS011;29564;46.622;13.818;2022-07-18T02:58:39;2.72;;;2.38;;
43905;SDS011;29564;46.622;13.818;2022-07-18T02:59:41;3.03;;;2.30;;
43905;SDS011;29564;46.622;13.818;2022-07-18T03:00:42;4.25;;;2.58;;
43905;SDS011;29564;46.622;13.818;2022-07-18T03:01:43;4.65;;;2.78;;
43905;SDS011;29564;46.622;13.818;2022-07-18T03:02:44;6.03;;;2.50;;
43905;SDS011;29564;46.622;13.818;2022-07-18T03:03:46;4.03;;;2.50;;
43905;SDS011;29564;46.622;13.818;2022-07-18T03:04:47;3.42;;;2.45;;
43905;SDS011;29564;46.622;13.818;2022-07-18T03:05:48;3.03;;;2.42;;
43905;SDS011;29564;46.622;13.818;2022-07-18T03:06:50;3.67;;;2.50;;
43905;SDS011;29564;46.622;13.818;2022-07-18T03:07:51;3.28;;;2.40;;
43905;SDS011;29564;46.622;13.818;2022-07-18T03:08:52;4.32;;;2.75;;
43905;SDS011;29564;46.622;13.818;2022-07-18T03:09:53;4.40;;;2.58;;
43905;SDS011;29564;46.622;13.818;2022-07-18T03:10:54;4.00;;;2.42;;
43905;SDS011;29564;46.622;13.818;2022-07-18T03:11:56;4.38;;;2.60;;
43905;SDS011;29564;46.622;13.818;2022-07-18T03:12:57;3.33;;;2.30;;
43905;SDS011;29564;46.622;13.818;2022-07-18T03:13:58;4.40;;;2.40;;
43905;SDS011;29564;46.622;13.818;2022-07-18T03:14:59;4.25;;;2.53;;
43905;SDS011;29564;46.622;13.818;2022-07-18T03:16:00;5.18;;;2.28;;
43905;SDS011;29564;46.622;13.818;2022-07-18T03:17:02;3.83;;;2.70;;
43905;SDS011;29564;46.622;13.818;2022-07-18T03:18:03;3.47;;;2.40;;
43905;SDS011;29564;46.622;13.818;2022-07-18T03:19:04;4.22;;;2.70;;
43905;SDS011;29564;46.622;13.818;2022-07-18T03:20:05;4.32;;;2.30;;
43905;SDS011;29564;46.622;13.818;2022-07-18T03:21:07;3.85;;;2.65;;
43905;SDS011;29564;46.622;13.818;2022-07-18T03:22:08;3.13;;;2.30;;
43905;SDS011;29564;46.622;13.818;2022-07-18T03:23:09;3.90;;;2.42;;
43905;SDS011;29564;46.622;13.818;2022-07-18T03:24:10;5.05;;;2.63;;
43905;SDS011;29564;46.622;13.818;2022-07-18T03:25:12;3.55;;;2.25;;
43905;SDS011;29564;46.622;13.818;2022-07-18T03:26:13;4.18;;;2.80;;
43905;SDS011;29564;46.622;13.818;2022-07-18T03:27:14;3.78;;;2.65;;
43905;SDS011;29564;46.622;13.818;2022-07-18T03:28:16;3.22;;;2.35;;
43905;SDS011;29564;46.622;13.818;2022-07-18T03:29:17;3.97;;;2.60;;
43905;SDS011;29564;46.622;13.818;2022-07-18T03:30:18;2.97;;;2.13;;
43905;SDS011;29564;46.622;13.818;2022-07-18T03:31:20;3.55;;;2.72;;
43905;SDS011;29564;46.622;13.818;2022-07-18T03:32:21;2.75;;;2.30;;
43905;SDS011;29564;46.622;13.818;2022-07-18T03:33:22;4.13;;;2.40;;
43905;SDS011;29564;46.622;13.818;2022-07-18T03:34:23;3.47;;;2.63;;
43905;SDS011;29564;46.622;13.818;2022-07-18T03:35:25;5.20;;;2.50;;
43905;SDS011;29564;46.622;13.818;2022-07-18T03:36:26;3.50;;;2.58;;
43905;SDS011;29564;46.622;13.818;2022-07-18T03:37:27;4.82;;;2.60;;
43905;SDS011;29564;46.622;13.818;2022-07-18T03:38:28;2.65;;;2.15;;
43905;SDS011;29564;46.622;13.818;2022-07-18T03:39:30;3.75;;;2.63;;
43905;SDS011;29564;46.622;13.818;2022-07-18T03:40:31;3.13;;;2.30;;
43905;SDS011;29564;46.622;13.818;2022-07-18T03:41:32;3.20;;;2.47;;
43905;SDS011;29564;46.622;13.818;2022-07-18T03:42:36;3.67;;;2.65;;
43905;SDS011;29564;46.622;13.818;2022-07-18T03:43:38;3.40;;;2.60;;
43905;SDS011;29564;46.622;13.818;2022-07-18T03:44:40;3.47;;;2.30;;
43905;SDS011;29564;46.622;13.818;2022-07-18T03:45:41;3.58;;;2.80;;
43905;SDS011;29564;46.622;13.818;2022-07-18T03:46:42;6.32;;;2.47;;
43905;SDS011;29564;46.622;13.818;2022-07-18T03:47:44;3.28;;;2.63;;
43905;SDS011;29564;46.622;13.818;2022-07-18T03:48:45;3.33;;;2.60;;
43905;SDS011;29564;46.622;13.818;2022-07-18T03:49:46;3.83;;;2.17;;
43905;SDS011;29564;46.622;13.818;2022-07-18T03:50:47;4.47;;;2.50;;
43905;SDS011;29564;46.622;13.818;2022-07-18T03:51:48;4.22;;;2.47;;
43905;SDS011;29564;46.622;13.818;2022-07-18T03:52:49;3.45;;;2.40;;
43905;SDS011;29564;46.622;13.818;2022-07-18T03:53:50;3.88;;;2.60;;
43905;SDS011;29564;46.622;13.818;2022-07-18T03:54:52;5.25;;;2.58;;
43905;SDS011;29564;46.622;13.818;2022-07-18T03:55:53;4.40;;;2.70;;
43905;SDS011;29564;46.622;13.818;2022-07-18T03:56:54;3.00;;;2.47;;
43905;SDS011;29564;46.622;13.818;2022-07-18T03:57:55;7.18;;;2.70;;
43905;SDS011;29564;46.622;13.818;2022-07-18T03:58:57;3.67;;;2.25;;
43905;SDS011;29564;46.622;13.818;2022-07-18T03:59:58;2.92;;;2.30;;
43905;SDS011;29564;46.622;13.818;2022-07-18T04:00:59;3.38;;;2.80;;
43905;SDS011;29564;46.622;13.818;2022-07-18T04:02:00;3.30;;;2.00;;
43905;SDS011;29564;46.622;13.818;2022-07-18T04:03:02;4.88;;;2.85;;
43905;SDS011;29564;46.622;13.818;2022-07-18T04:04:03;4.93;;;2.15;;
43905;SDS011;29564;46.622;13.818;2022-07-18T04:05:04;5.88;;;2.55;;
43905;SDS011;29564;46.622;13.818;2022-07-18T04:06:06;3.80;;;2.20;;
43905;SDS011;29564;46.622;13.818;2022-07-18T04:07:07;5.53;;;2.67;;
43905;SDS011;29564;46.622;13.818;2022-07-18T04:08:08;3.53;;;1.95;;
43905;SDS011;29564;46.622;13.818;2022-07-18T04:09:09;4.18;;;2.42;;
43905;SDS011;29564;46.622;13.818;2022-07-18T04:10:11;2.65;;;1.90;;
43905;SDS011;29564;46.622;13.818;2022-07-18T04:11:13;2.63;;;2.30;;
43905;SDS011;29564;46.622;13.818;2022-07-18T04:12:14;3.63;;;2.13;;
43905;SDS011;29564;46.622;13.818;2022-07-18T04:13:15;5.88;;;2.70;;
43905;SDS011;29564;46.622;13.818;2022-07-18T04:14:17;3.28;;;2.30;;
43905;SDS011;29564;46.622;13.818;2022-07-18T04:15:19;3.15;;;2.67;;
43905;SDS011;29564;46.622;13.818;2022-07-18T04:16:22;3.25;;;2.80;;
43905;SDS011;29564;46.622;13.818;2022-07-18T04:17:23;3.58;;;2.63;;
43905;SDS011;29564;46.622;13.818;2022-07-18T04:18:24;5.57;;;2.85;;
43905;SDS011;29564;46.622;13.818;2022-07-18T04:19:25;4.40;;;3.15;;
43905;SDS011;29564;46.622;13.818;2022-07-18T04:20:27;5.45;;;2.70;;
43905;SDS011;29564;46.622;13.818;2022-07-18T04:21:28;3.10;;;2.55;;
43905;SDS011;29564;46.622;13.818;2022-07-18T04:22:29;3.50;;;2.58;;
43905;SDS011;29564;46.622;13.818;2022-07-18T04:23:30;4.50;;;2.28;;
43905;SDS011;29564;46.622;13.818;2022-07-18T04:24:32;2.92;;;2.13;;
43905;SDS011;29564;46.622;13.818;2022-07-18T04:25:39;4.07;;;2.53;;
43905;SDS011;29564;46.622;13.818;2022-07-18T04:26:42;5.15;;;2.55;;
43905;SDS011;29564;46.622;13.818;2022-07-18T04:27:43;5.43;;;3.25;;
43905;SDS011;29564;46.622;13.818;2022-07-18T04:28:44;4.32;;;2.85;;
43905;SDS011;29564;46.622;13.818;2022-07-18T04:29:46;4.47;;;2.72;;
43905;SDS011;29564;46.622;13.818;2022-07-18T04:30:47;5.97;;;2.78;;
43905;SDS011;29564;46.622;13.818;2022-07-18T04:31:48;3.88;;;2.47;;
43905;SDS011;29564;46.622;13.818;2022-07-18T04:32:49;5.20;;;2.80;;
43905;SDS011;29564;46.622;13.818;2022-07-18T04:33:51;3.60;;;2.40;;
43905;SDS011;29564;46.622;13.818;2022-07-18T04:34:52;5.53;;;2.53;;
43905;SDS011;29564;46.622;13.818;2022-07-18T04:35:53;4.53;;;2.55;;
43905;SDS011;29564;46.622;13.818;2022-07-18T04:36:54;3.47;;;2.42;;
43905;SDS011;29564;46.622;13.818;2022-07-18T04:37:56;3.80;;;2.70;;
43905;SDS011;29564;46.622;13.818;2022-07-18T04:38:57;3.00;;;2.35;;
43905;SDS011;29564;46.622;13.818;2022-07-18T04:39:59;3.40;;;2.13;;
43905;SDS011;29564;46.622;13.818;2022-07-18T04:41:01;3.30;;;2.10;;
43905;SDS011;29564;46.622;13.818;2022-07-18T04:42:02;5.57;;;2.70;;
43905;SDS011;29564;46.622;13.818;2022-07-18T04:43:04;5.32;;;2.80;;
43905;SDS011;29564;46.622;13.818;2022-07-18T04:44:05;4.75;;;3.15;;
43905;SDS011;29564;46.622;13.818;2022-07-18T04:45:06;3.47;;;2.70;;
43905;SDS011;29564;46.622;13.818;2022-07-18T04:46:08;3.50;;;2.85;;
43905;SDS011;29564;46.622;13.818;2022-07-18T04:47:09;3.97;;;2.80;;
43905;SDS011;29564;46.622;13.818;2022-07-18T04:48:10;5.88;;;2.90;;
43905;SDS011;29564;46.622;13.818;2022-07-18T04:49:11;4.35;;;2.65;;
43905;SDS011;29564;46.622;13.818;2022-07-18T04:50:13;4.68;;;3.10;;
43905;SDS011;29564;46.622;13.818;2022-07-18T04:51:14;4.43;;;2.55;;
43905;SDS011;29564;46.622;13.818;2022-07-18T04:52:15;5.68;;;2.83;;
43905;SDS011;29564;46.622;13.818;2022-07-18T04:53:16;3.15;;;2.60;;
43905;SDS011;29564;46.622;13.818;2022-07-18T04:54:18;4.15;;;3.03;;
43905;SDS011;29564;46.622;13.818;2022-07-18T04:55:20;7.15;;;3.15;;
43905;SDS011;29564;46.622;13.818;2022-07-18T04:56:22;4.55;;;2.80;;
43905;SDS011;29564;46.622;13.818;2022-07-18T04:57:23;4.28;;;3.03;;
43905;SDS011;29564;46.622;13.818;2022-07-18T04:58:24;4.50;;;2.92;;
43905;SDS011;29564;46.622;13.818;2022-07-18T04:59:25;4.30;;;2.60;;
43905;SDS011;29564;46.622;13.818;2022-07-18T05:00:27;5.45;;;3.00;;
43905;SDS011;29564;46.622;13.818;2022-07-18T05:01:28;5.15;;;2.78;;
43905;SDS011;29564;46.622;13.818;2022-07-18T05:02:29;4.70;;;3.15;;
43905;SDS011;29564;46.622;13.818;2022-07-18T05:03:30;3.03;;;2.70;;
43905;SDS011;29564;46.622;13.818;2022-07-18T05:04:31;5.55;;;3.08;;
43905;SDS011;29564;46.622;13.818;2022-07-18T05:05:34;4.40;;;2.70;;
43905;SDS011;29564;46.622;13.818;2022-07-18T05:06:36;4.07;;;2.50;;
43905;SDS011;29564;46.622;13.818;2022-07-18T05:07:37;3.20;;;2.55;;
43905;SDS011;29564;46.622;13.818;2022-07-18T05:08:39;5.22;;;3.00;;
43905;SDS011;29564;46.622;13.818;2022-07-18T05:09:40;3.75;;;2.10;;
43905;SDS011;29564;46.622;13.818;2022-07-18T05:10:41;3.60;;;2.40;;
43905;SDS011;29564;46.622;13.818;2022-07-18T05:11:43;5.13;;;3.05;;
43905;SDS011;29564;46.622;13.818;2022-07-18T05:12:45;5.32;;;2.72;;
43905;SDS011;29564;46.622;13.818;2022-07-18T05:13:52;3.63;;;2.58;;
43905;SDS011;29564;46.622;13.818;2022-07-18T05:14:54;4.35;;;2.80;;
43905;SDS011;29564;46.622;13.818;2022-07-18T05:15:55;3.95;;;2.90;;
43905;SDS011;29564;46.622;13.818;2022-07-18T05:16:56;4.00;;;2.97;;
43905;SDS011;29564;46.622;13.818;2022-07-18T05:17:57;4.30;;;2.90;;
43905;SDS011;29564;46.622;13.818;2022-07-18T05:18:58;6.20;;;2.85;;
43905;SDS011;29564;46.622;13.818;2022-07-18T05:19:59;5.45;;;3.10;;
43905;SDS011;29564;46.622;13.818;2022-07-18T05:21:01;4.95;;;3.08;;
43905;SDS011;29564;46.622;13.818;2022-07-18T05:22:02;7.35;;;3.25;;
43905;SDS011;29564;46.622;13.818;2022-07-18T05:23:03;3.78;;;3.00;;
43905;SDS011;29564;46.622;13.818;2022-07-18T05:24:04;5.82;;;3.47;;
43905;SDS011;29564;46.622;13.818;2022-07-18T05:25:06;4.40;;;3.25;;
43905;SDS011;29564;46.622;13.818;2022-07-18T05:26:08;4.18;;;2.67;;
43905;SDS011;29564;46.622;13.818;2022-07-18T05:27:09;7.10;;;3.35;;
43905;SDS011;29564;46.622;13.818;2022-07-18T05:28:10;6.55;;;3.33;;
43905;SDS011;29564;46.622;13.818;2022-07-18T05:29:12;5.93;;;3.42;;
43905;SDS011;29564;46.622;13.818;2022-07-18T05:30:14;6.05;;;3.35;;
43905;SDS011;29564;46.622;13.818;2022-07-18T05:31:15;5.50;;;2.60;;
43905;SDS011;29564;46.622;13.818;2022-07-18T05:32:17;6.07;;;2.95;;
43905;SDS011;29564;46.622;13.818;2022-07-18T05:33:18;7.03;;;3.47;;
43905;SDS011;29564;46.622;13.818;2022-07-18T05:34:19;5.00;;;3.67;;
43905;SDS011;29564;46.622;13.818;2022-07-18T05:35:20;6.07;;;3.72;;
43905;SDS011;29564;46.622;13.818;2022-07-18T05:36:22;4.78;;;3.40;;
43905;SDS011;29564;46.622;13.818;2022-07-18T05:37:23;4.25;;;3.10;;
43905;SDS011;29564;46.622;13.818;2022-07-18T05:38:24;6.82;;;3.50;;
43905;SDS011;29564;46.622;13.818;2022-07-18T05:39:25;5.53;;;3.28;;
43905;SDS011;29564;46.622;13.818;2022-07-18T05:40:27;6.88;;;3.35;;
43905;SDS011;29564;46.622;13.818;2022-07-18T05:41:28;6.63;;;3.60;;
43905;SDS011;29564;46.622;13.818;2022-07-18T05:42:29;7.13;;;4.30;;
43905;SDS011;29564;46.622;13.818;2022-07-18T05:43:30;5.72;;;2.92;;
43905;SDS011;29564;46.622;13.818;2022-07-18T05:44:32;9.38;;;3.70;;
43905;SDS011;29564;46.622;13.818;2022-07-18T05:45:33;6.75;;;3.65;;
43905;SDS011;29564;46.622;13.818;2022-07-18T05:46:34;5.50;;;3.90;;
43905;SDS011;29564;46.622;13.818;2022-07-18T05:47:36;5.03;;;2.70;;
43905;SDS011;29564;46.622;13.818;2022-07-18T05:48:37;8.20;;;4.22;;
43905;SDS011;29564;46.622;13.818;2022-07-18T05:49:39;6.88;;;3.47;;
43905;SDS011;29564;46.622;13.818;2022-07-18T05:50:41;5.50;;;3.60;;
43905;SDS011;29564;46.622;13.818;2022-07-18T05:51:42;8.95;;;3.75;;
43905;SDS011;29564;46.622;13.818;2022-07-18T05:52:43;7.93;;;3.50;;
43905;SDS011;29564;46.622;13.818;2022-07-18T05:53:44;8.07;;;3.72;;
43905;SDS011;29564;46.622;13.818;2022-07-18T05:54:45;9.75;;;3.58;;
43905;SDS011;29564;46.622;13.818;2022-07-18T05:55:47;7.57;;;2.95;;
43905;SDS011;29564;46.622;13.818;2022-07-18T05:56:50;7.43;;;3.72;;
43905;SDS011;29564;46.622;13.818;2022-07-18T05:57:52;6.55;;;3.53;;
43905;SDS011;29564;46.622;13.818;2022-07-18T05:58:53;6.40;;;3.60;;
43905;SDS011;29564;46.622;13.818;2022-07-18T05:59:54;7.32;;;3.80;;
43905;SDS011;29564;46.622;13.818;2022-07-18T06:00:56;7.20;;;3.97;;
43905;SDS011;29564;46.622;13.818;2022-07-18T06:01:57;6.38;;;3.42;;
43905;SDS011;29564;46.622;13.818;2022-07-18T06:02:58;5.40;;;3.58;;
43905;SDS011;29564;46.622;13.818;2022-07-18T06:03:59;4.07;;;3.50;;
43905;SDS011;29564;46.622;13.818;2022-07-18T06:05:00;6.82;;;3.47;;
43905;SDS011;29564;46.622;13.818;2022-07-18T06:06:02;4.88;;;3.97;;